Bettina K — PBEW — position and weather

sailwx.info

Track history (hours):
 
Tides and Currents Weather Stations Pressure Air Temp Water Temp Dewpoint Dewpoint Depression Visibility Wind Speed Wind Dir Waves Ship Positions

Bettina K

Last reported at 2017-Nov-16 01:39 UTC. Time now 2017-Nov-18 01:13 UTC.
Position N 57°08' E 011°59'.

Length 82 m; draft 3.6 m.

Type: Cargo ship. MMSI: 244730469.

Date/timePositionNaut miles runAvg speedWind from/ knotsBaromVisibWave heightAir tempDewpointWater temp
2017-Nov-16 01:39N 57°08' E 011°59'210.3
2017-Nov-16 01:30N 57°10' E 011°58'510.4
2017-Nov-16 01:00N 57°14' E 011°53'510.2
2017-Nov-16 00:30N 57°18' E 011°46'5 9.7
2017-Nov-16 00:00N 57°21' E 011°40'5 9.8
2017-Nov-15 23:30N 57°25' E 011°34'5 9.8
2017-Nov-15 23:00N 57°29' E 011°28'5 9.7
2017-Nov-15 22:30N 57°33' E 011°26'5 9.5
2017-Nov-15 22:00N 57°38' E 011°23'5 9.8
2017-Nov-15 21:30N 57°42' E 011°21'510.0
2017-Nov-15 20:59N 57°48' E 011°18'5 9.7
2017-Nov-15 20:30N 57°52' E 011°16'5 9.3
2017-Nov-15 19:59N 57°57' E 011°14'5 9.6
2017-Nov-15 19:30N 58°01' E 011°12'5 9.2
2017-Nov-15 19:00N 58°06' E 011°10'5 9.0
2017-Nov-15 18:29N 58°10' E 011°08'5 9.3
2017-Nov-15 17:59N 58°15' E 011°06'9 9.3
2017-Nov-15 17:04N 58°23' E 011°01'1 9.3
2017-Nov-15 17:00N 58°24' E 011°01'5 9.4
2017-Nov-15 16:30N 58°28' E 010°59'5 9.7
2017-Nov-15 16:00N 58°33' E 010°56'5 9.6
2017-Nov-15 15:30N 58°37' E 010°52'5 9.9
2017-Nov-15 15:00N 58°42' E 010°49'510.0
2017-Nov-15 14:30N 58°47' E 010°47'510.0
2017-Nov-15 14:00N 58°52' E 010°47'510.4
2017-Nov-15 13:30N 58°57' E 010°46'5 9.4
2017-Nov-15 13:00N 59°01' E 010°46'4 7.9
2017-Nov-15 12:30N 59°01' E 010°54'3 6.3
2017-Nov-15 12:00N 59°03' E 010°58'510.3
2017-Nov-15 11:30N 59°09' E 010°58'3 5.4
2017-Nov-15 11:00N 59°11' E 010°57'0 0.4
2017-Nov-15 10:30N 59°11' E 010°57'0 0.0
2017-Nov-15 10:00N 59°11' E 010°57'0 0.0
2017-Nov-15 09:30N 59°11' E 010°57'0 0.0
2017-Nov-15 09:00N 59°11' E 010°57'0 0.0
2017-Nov-15 08:30N 59°11' E 010°57'0 0.0
2017-Nov-15 08:00N 59°11' E 010°57'0 0.0
2017-Nov-15 07:30N 59°11' E 010°57'0 0.0
2017-Nov-15 07:00N 59°11' E 010°57'0 0.0
2017-Nov-15 06:30N 59°11' E 010°57'0 0.0
2017-Nov-15 06:00N 59°11' E 010°57'0 0.0
2017-Nov-15 05:30N 59°11' E 010°57'0 0.0
2017-Nov-15 05:00N 59°11' E 010°57'0 0.0
2017-Nov-15 04:30N 59°11' E 010°57'0 0.0
2017-Nov-15 04:00N 59°11' E 010°57'0 0.0
2017-Nov-15 03:30N 59°11' E 010°57'0 0.0
2017-Nov-15 03:00N 59°11' E 010°57'0 0.0
2017-Nov-15 02:30N 59°11' E 010°57'0 0.0
2017-Nov-15 02:00N 59°11' E 010°57'0 0.0
2017-Nov-15 01:30N 59°11' E 010°57'0 0.0
2017-Nov-15 01:00N 59°11' E 010°57'0 0.0
2017-Nov-15 00:30N 59°11' E 010°57'0 0.0
2017-Nov-15 00:00N 59°11' E 010°57'0 0.0
2017-Nov-14 23:30N 59°11' E 010°57'0 0.0
2017-Nov-14 23:00N 59°11' E 010°57'0 0.0
2017-Nov-14 22:30N 59°11' E 010°57'0 0.0
2017-Nov-14 22:00N 59°11' E 010°57'0 0.0
2017-Nov-14 21:30N 59°11' E 010°57'0 0.0
2017-Nov-14 21:00N 59°11' E 010°57'0 0.0
2017-Nov-14 20:30N 59°11' E 010°57'0 0.0
2017-Nov-14 20:00N 59°11' E 010°57'0 0.0
2017-Nov-14 19:30N 59°11' E 010°57'0 0.0
2017-Nov-14 19:00N 59°11' E 010°57'0 0.0
2017-Nov-14 18:30N 59°11' E 010°57'0 0.0
2017-Nov-14 18:00N 59°11' E 010°57'0 0.0
2017-Nov-14 17:30N 59°11' E 010°57'0 0.0
2017-Nov-14 17:00N 59°11' E 010°57'0 0.0
2017-Nov-14 16:30N 59°11' E 010°57'0 0.0
2017-Nov-14 16:00N 59°11' E 010°57'0 0.0
2017-Nov-14 15:30N 59°11' E 010°57'0 0.0
2017-Nov-14 15:00N 59°11' E 010°57'0 0.0
2017-Nov-14 14:30N 59°11' E 010°57'0 0.0
2017-Nov-14 14:00N 59°11' E 010°57'0 0.0
2017-Nov-14 13:30N 59°11' E 010°57'0 0.0
2017-Nov-14 13:00N 59°11' E 010°57'0 0.0
2017-Nov-14 12:30N 59°11' E 010°57'0 0.0
2017-Nov-14 12:00N 59°11' E 010°57'0 0.0
2017-Nov-14 11:30N 59°11' E 010°57'0 0.0
2017-Nov-14 11:00N 59°11' E 010°57'0 0.0
2017-Nov-14 10:30N 59°11' E 010°57'0 0.0
2017-Nov-14 10:00N 59°11' E 010°57'0 0.0
2017-Nov-14 09:30N 59°11' E 010°57'0 0.0
2017-Nov-14 09:00N 59°11' E 010°57'0 0.0
2017-Nov-14 08:30N 59°11' E 010°57'0 0.0
2017-Nov-14 08:00N 59°11' E 010°57'0 0.0
2017-Nov-14 07:30N 59°11' E 010°57'0 0.0
2017-Nov-14 07:00N 59°11' E 010°57'0 0.0
2017-Nov-14 06:30N 59°11' E 010°57'0 0.0
2017-Nov-14 06:00N 59°11' E 010°57'0 0.0
2017-Nov-14 05:30N 59°11' E 010°57'0 0.0
2017-Nov-14 05:00N 59°11' E 010°57'0 0.0
2017-Nov-14 04:30N 59°11' E 010°57'0 0.0
2017-Nov-14 04:00N 59°11' E 010°57'0 0.0
2017-Nov-14 03:30N 59°11' E 010°57'0 0.0
2017-Nov-14 03:00N 59°11' E 010°57'0 0.0
2017-Nov-14 02:30N 59°11' E 010°57'0 0.0
2017-Nov-14 02:00N 59°11' E 010°57'0 0.0
2017-Nov-14 01:30N 59°11' E 010°57'0 0.0
2017-Nov-14 01:00N 59°11' E 010°57'0 0.0
2017-Nov-14 00:30N 59°11' E 010°57'0 0.0
2017-Nov-14 00:00N 59°11' E 010°57'0 0.0
2017-Nov-13 23:30N 59°11' E 010°57'0 0.0
2017-Nov-13 23:00N 59°11' E 010°57'0 0.0
2017-Nov-13 22:30N 59°11' E 010°57'0 0.0
2017-Nov-13 22:00N 59°11' E 010°57'123 6.1
2017-Nov-13 01:56N 57°30' E 008°44'4 9.3
2017-Nov-13 01:30N 57°26' E 008°40'5 9.4
2017-Nov-13 01:00N 57°23' E 008°35'5 9.6
2017-Nov-13 00:29N 57°18' E 008°30'111 8.4
2017-Nov-12 11:16N 55°38' E 007°05'2 8.8
2017-Nov-12 11:00N 55°36' E 007°03'5 9.1
2017-Nov-12 10:30N 55°33' E 006°58'5 9.2
2017-Nov-12 10:00N 55°29' E 006°53'5 9.3
2017-Nov-12 09:30N 55°26' E 006°47'5 9.1
2017-Nov-12 09:00N 55°22' E 006°42'5 9.2
2017-Nov-12 08:30N 55°19' E 006°37'5 9.2
2017-Nov-12 08:00N 55°15' E 006°31'145 7.8
2017-Nov-11 13:25N 53°09' E 004°31'4 8.0
2017-Nov-11 12:56N 53°05' E 004°28'4 8.1
2017-Nov-11 12:29N 53°02' E 004°25'4 8.3
2017-Nov-11 11:58N 52°58' E 004°21'4 8.7
2017-Nov-11 11:30N 52°55' E 004°18'5 9.0
2017-Nov-11 11:00N 52°51' E 004°15'5 9.4
2017-Nov-11 10:30N 52°47' E 004°10'5 9.8
2017-Nov-11 10:00N 52°43' E 004°04'510.1
2017-Nov-11 09:30N 52°40' E 003°59'510.1
2017-Nov-11 09:00N 52°36' E 003°53'59 9.2
2017-Nov-11 02:39N 51°53' E 002°47'1 7.2
2017-Nov-11 02:29N 51°52' E 002°46'4 7.2
2017-Nov-11 01:59N 51°49' E 002°43'4 7.1
2017-Nov-11 01:28N 51°47' E 002°39'3 7.1
2017-Nov-11 01:00N 51°44' E 002°35'4 7.0
2017-Nov-11 00:28N 51°41' E 002°31'3 7.2
2017-Nov-11 00:00N 51°39' E 002°27'4 7.3
2017-Nov-10 23:30N 51°36' E 002°24'5 7.6
2017-Nov-10 22:47N 51°32' E 002°18'3 8.0
2017-Nov-10 22:26N 51°30' E 002°15'4 8.3
2017-Nov-10 21:57N 51°27' E 002°11'4 8.6
2017-Nov-10 21:30N 51°24' E 002°07'4 8.7
2017-Nov-10 21:00N 51°21' E 002°01'4 8.9
2017-Nov-10 20:30N 51°18' E 001°56'5 9.2
2017-Nov-10 20:00N 51°15' E 001°51'5 9.4
2017-Nov-10 19:30N 51°11' E 001°46'5 9.8
2017-Nov-10 19:00N 51°07' E 001°42'510.4
2017-Nov-10 18:31N 51°03' E 001°37'82 9.9
2017-Nov-10 10:14N 50°17' W 000°10'3 9.8
2017-Nov-10 09:56N 50°16' W 000°15'5 9.5
2017-Nov-10 09:22N 50°15' W 000°23'4 9.0
2017-Nov-10 08:53N 50°14' W 000°29'23 7.9
2017-Nov-10 06:00N 50°08' W 001°04'4 7.3
2017-Nov-10 05:30N 50°08' W 001°10'4 7.6
2017-Nov-10 05:00N 50°07' W 001°15'4 8.0
2017-Nov-10 04:31N 50°05' W 001°21'4 8.5
2017-Nov-10 04:00N 50°04' W 001°28'5 9.2
2017-Nov-10 03:30N 50°03' W 001°35'5 9.8
2017-Nov-10 03:00N 50°01' W 001°42'510.7
2017-Nov-10 02:31N 50°00' W 001°50'611.3
2017-Nov-10 02:00N 49°59' W 001°58'4611.6
2017-Nov-09 22:01N 49°51' W 003°09'411.2
2017-Nov-09 21:42N 49°51' W 003°15'211.2
2017-Nov-09 21:30N 49°51' W 003°18'511.1
2017-Nov-09 21:00N 49°51' W 003°27'1110.9
2017-Nov-09 19:58N 49°52' W 003°44'1510.2
2017-Nov-09 18:28N 49°52' W 004°08'12 9.7
2017-Nov-09 17:15N 49°52' W 004°26'12 9.4
2017-Nov-09 15:56N 49°53' W 004°46'53 6.4
2017-Nov-09 07:38N 50°25' W 005°52'3 8.6
2017-Nov-09 07:20N 50°26' W 005°49'3 8.5
2017-Nov-09 07:00N 50°28' W 005°46'4 8.6
2017-Nov-09 06:30N 50°31' W 005°41'4 8.7
2017-Nov-09 06:00N 50°34' W 005°35'4 8.9
2017-Nov-09 05:30N 50°37' W 005°30'4 9.0
2017-Nov-09 05:00N 50°40' W 005°25'5 9.2
2017-Nov-09 04:30N 50°43' W 005°20'5 9.5
2017-Nov-09 04:00N 50°46' W 005°14'5 9.7
2017-Nov-09 03:30N 50°50' W 005°09'510.0
2017-Nov-09 03:00N 50°53' W 005°03'510.2
2017-Nov-09 02:30N 50°56' W 004°57'510.5
2017-Nov-09 02:00N 50°60' W 004°51'510.8
2017-Nov-09 01:30N 51°04' W 004°45'611.2
2017-Nov-09 01:00N 51°08' W 004°38'611.7
2017-Nov-09 00:29N 51°12' W 004°31'19 0.5
2017-Nov-07 09:50N 51°30' W 004°42'3 8.5
2017-Nov-07 09:29N 51°30' W 004°47'4 8.4
2017-Nov-07 09:00N 51°30' W 004°53'4 8.3
2017-Nov-07 08:30N 51°30' W 004°60'4 8.4
2017-Nov-07 08:00N 51°30' W 005°06'4 8.9
2017-Nov-07 07:30N 51°29' W 005°13'6 9.4
2017-Nov-07 06:51N 51°27' W 005°23'4 9.9
2017-Nov-07 06:30N 51°26' W 005°28'54 7.3
2017-Nov-06 23:07N 51°57' W 006°39'1 8.0
2017-Nov-06 22:58N 51°58' W 006°40'4 7.6
2017-Nov-06 22:30N 51°60' W 006°45'4 7.7
2017-Nov-06 22:00N 52°02' W 006°50'4 7.7
2017-Nov-06 21:30N 52°05' W 006°54'4 7.1
2017-Nov-06 21:00N 52°08' W 006°57'3 5.7
2017-Nov-06 20:30N 52°11' W 006°56'6 0.3
2017-Nov-06 02:31N 52°16' W 007°02'0 0.0
2017-Nov-06 02:00N 52°16' W 007°02'  
Track history (hours):
 
Tides and Currents Weather Stations Pressure Air Temp Water Temp Dewpoint Dewpoint Depression Visibility Wind Speed Wind Dir Waves Ship Positions

Bettina K

Last reported at 2017-Nov-16 01:39 UTC. Time now 2017-Nov-18 01:13 UTC.
Position N 57°08' E 011°59'.

Length 82 m; draft 3.6 m.

Type: Cargo ship. MMSI: 244730469.

Date/timePositionNaut miles runAvg speedWind from/ knotsBaromVisibWave heightAir tempDewpointWater temp
2017-Nov-16 01:39N 57°08' E 011°59'210.3
2017-Nov-16 01:30N 57°10' E 011°58'510.4
2017-Nov-16 01:00N 57°14' E 011°53'510.2
2017-Nov-16 00:30N 57°18' E 011°46'5 9.7
2017-Nov-16 00:00N 57°21' E 011°40'5 9.8
2017-Nov-15 23:30N 57°25' E 011°34'5 9.8
2017-Nov-15 23:00N 57°29' E 011°28'5 9.7
2017-Nov-15 22:30N 57°33' E 011°26'5 9.5
2017-Nov-15 22:00N 57°38' E 011°23'5 9.8
2017-Nov-15 21:30N 57°42' E 011°21'510.0
2017-Nov-15 20:59N 57°48' E 011°18'5 9.7
2017-Nov-15 20:30N 57°52' E 011°16'5 9.3
2017-Nov-15 19:59N 57°57' E 011°14'5 9.6
2017-Nov-15 19:30N 58°01' E 011°12'5 9.2
2017-Nov-15 19:00N 58°06' E 011°10'5 9.0
2017-Nov-15 18:29N 58°10' E 011°08'5 9.3
2017-Nov-15 17:59N 58°15' E 011°06'9 9.3
2017-Nov-15 17:04N 58°23' E 011°01'1 9.3
2017-Nov-15 17:00N 58°24' E 011°01'5 9.4
2017-Nov-15 16:30N 58°28' E 010°59'5 9.7
2017-Nov-15 16:00N 58°33' E 010°56'5 9.6
2017-Nov-15 15:30N 58°37' E 010°52'5 9.9
2017-Nov-15 15:00N 58°42' E 010°49'510.0
2017-Nov-15 14:30N 58°47' E 010°47'510.0
2017-Nov-15 14:00N 58°52' E 010°47'510.4
2017-Nov-15 13:30N 58°57' E 010°46'5 9.4
2017-Nov-15 13:00N 59°01' E 010°46'4 7.9
2017-Nov-15 12:30N 59°01' E 010°54'3 6.3
2017-Nov-15 12:00N 59°03' E 010°58'510.3
2017-Nov-15 11:30N 59°09' E 010°58'3 5.4
2017-Nov-15 11:00N 59°11' E 010°57'0 0.4
2017-Nov-15 10:30N 59°11' E 010°57'0 0.0
2017-Nov-15 10:00N 59°11' E 010°57'0 0.0
2017-Nov-15 09:30N 59°11' E 010°57'0 0.0
2017-Nov-15 09:00N 59°11' E 010°57'0 0.0
2017-Nov-15 08:30N 59°11' E 010°57'0 0.0
2017-Nov-15 08:00N 59°11' E 010°57'0 0.0
2017-Nov-15 07:30N 59°11' E 010°57'0 0.0
2017-Nov-15 07:00N 59°11' E 010°57'0 0.0
2017-Nov-15 06:30N 59°11' E 010°57'0 0.0
2017-Nov-15 06:00N 59°11' E 010°57'0 0.0
2017-Nov-15 05:30N 59°11' E 010°57'0 0.0
2017-Nov-15 05:00N 59°11' E 010°57'0 0.0
2017-Nov-15 04:30N 59°11' E 010°57'0 0.0
2017-Nov-15 04:00N 59°11' E 010°57'0 0.0
2017-Nov-15 03:30N 59°11' E 010°57'0 0.0
2017-Nov-15 03:00N 59°11' E 010°57'0 0.0
2017-Nov-15 02:30N 59°11' E 010°57'0 0.0
2017-Nov-15 02:00N 59°11' E 010°57'0 0.0
2017-Nov-15 01:30N 59°11' E 010°57'0 0.0
2017-Nov-15 01:00N 59°11' E 010°57'0 0.0
2017-Nov-15 00:30N 59°11' E 010°57'0 0.0
2017-Nov-15 00:00N 59°11' E 010°57'0 0.0
2017-Nov-14 23:30N 59°11' E 010°57'0 0.0
2017-Nov-14 23:00N 59°11' E 010°57'0 0.0
2017-Nov-14 22:30N 59°11' E 010°57'0 0.0
2017-Nov-14 22:00N 59°11' E 010°57'0 0.0
2017-Nov-14 21:30N 59°11' E 010°57'0 0.0
2017-Nov-14 21:00N 59°11' E 010°57'0 0.0
2017-Nov-14 20:30N 59°11' E 010°57'0 0.0
2017-Nov-14 20:00N 59°11' E 010°57'0 0.0
2017-Nov-14 19:30N 59°11' E 010°57'0 0.0
2017-Nov-14 19:00N 59°11' E 010°57'0 0.0
2017-Nov-14 18:30N 59°11' E 010°57'0 0.0
2017-Nov-14 18:00N 59°11' E 010°57'0 0.0
2017-Nov-14 17:30N 59°11' E 010°57'0 0.0
2017-Nov-14 17:00N 59°11' E 010°57'0 0.0
2017-Nov-14 16:30N 59°11' E 010°57'0 0.0
2017-Nov-14 16:00N 59°11' E 010°57'0 0.0
2017-Nov-14 15:30N 59°11' E 010°57'0 0.0
2017-Nov-14 15:00N 59°11' E 010°57'0 0.0
2017-Nov-14 14:30N 59°11' E 010°57'0 0.0
2017-Nov-14 14:00N 59°11' E 010°57'0 0.0
2017-Nov-14 13:30N 59°11' E 010°57'0 0.0
2017-Nov-14 13:00N 59°11' E 010°57'0 0.0
2017-Nov-14 12:30N 59°11' E 010°57'0 0.0
2017-Nov-14 12:00N 59°11' E 010°57'0 0.0
2017-Nov-14 11:30N 59°11' E 010°57'0 0.0
2017-Nov-14 11:00N 59°11' E 010°57'0 0.0
2017-Nov-14 10:30N 59°11' E 010°57'0 0.0
2017-Nov-14 10:00N 59°11' E 010°57'0 0.0
2017-Nov-14 09:30N 59°11' E 010°57'0 0.0
2017-Nov-14 09:00N 59°11' E 010°57'0 0.0
2017-Nov-14 08:30N 59°11' E 010°57'0 0.0
2017-Nov-14 08:00N 59°11' E 010°57'0 0.0
2017-Nov-14 07:30N 59°11' E 010°57'0 0.0
2017-Nov-14 07:00N 59°11' E 010°57'0 0.0
2017-Nov-14 06:30N 59°11' E 010°57'0 0.0
2017-Nov-14 06:00N 59°11' E 010°57'0 0.0
2017-Nov-14 05:30N 59°11' E 010°57'0 0.0
2017-Nov-14 05:00N 59°11' E 010°57'0 0.0
2017-Nov-14 04:30N 59°11' E 010°57'0 0.0
2017-Nov-14 04:00N 59°11' E 010°57'0 0.0
2017-Nov-14 03:30N 59°11' E 010°57'0 0.0
2017-Nov-14 03:00N 59°11' E 010°57'0 0.0
2017-Nov-14 02:30N 59°11' E 010°57'0 0.0
2017-Nov-14 02:00N 59°11' E 010°57'0 0.0
2017-Nov-14 01:30N 59°11' E 010°57'0 0.0
2017-Nov-14 01:00N 59°11' E 010°57'0 0.0
2017-Nov-14 00:30N 59°11' E 010°57'0 0.0
2017-Nov-14 00:00N 59°11' E 010°57'0 0.0
2017-Nov-13 23:30N 59°11' E 010°57'0 0.0
2017-Nov-13 23:00N 59°11' E 010°57'0 0.0
2017-Nov-13 22:30N 59°11' E 010°57'0 0.0
2017-Nov-13 22:00N 59°11' E 010°57'123 6.1
2017-Nov-13 01:56N 57°30' E 008°44'4 9.3
2017-Nov-13 01:30N 57°26' E 008°40'5 9.4
2017-Nov-13 01:00N 57°23' E 008°35'5 9.6
2017-Nov-13 00:29N 57°18' E 008°30'111 8.4
2017-Nov-12 11:16N 55°38' E 007°05'2 8.8
2017-Nov-12 11:00N 55°36' E 007°03'5 9.1
2017-Nov-12 10:30N 55°33' E 006°58'5 9.2
2017-Nov-12 10:00N 55°29' E 006°53'5 9.3
2017-Nov-12 09:30N 55°26' E 006°47'5 9.1
2017-Nov-12 09:00N 55°22' E 006°42'5 9.2
2017-Nov-12 08:30N 55°19' E 006°37'5 9.2
2017-Nov-12 08:00N 55°15' E 006°31'145 7.8
2017-Nov-11 13:25N 53°09' E 004°31'4 8.0
2017-Nov-11 12:56N 53°05' E 004°28'4 8.1
2017-Nov-11 12:29N 53°02' E 004°25'4 8.3
2017-Nov-11 11:58N 52°58' E 004°21'4 8.7
2017-Nov-11 11:30N 52°55' E 004°18'5 9.0
2017-Nov-11 11:00N 52°51' E 004°15'5 9.4
2017-Nov-11 10:30N 52°47' E 004°10'5 9.8
2017-Nov-11 10:00N 52°43' E 004°04'510.1
2017-Nov-11 09:30N 52°40' E 003°59'510.1
2017-Nov-11 09:00N 52°36' E 003°53'59 9.2
2017-Nov-11 02:39N 51°53' E 002°47'1 7.2
2017-Nov-11 02:29N 51°52' E 002°46'4 7.2
2017-Nov-11 01:59N 51°49' E 002°43'4 7.1
2017-Nov-11 01:28N 51°47' E 002°39'3 7.1
2017-Nov-11 01:00N 51°44' E 002°35'4 7.0
2017-Nov-11 00:28N 51°41' E 002°31'3 7.2
2017-Nov-11 00:00N 51°39' E 002°27'4 7.3
2017-Nov-10 23:30N 51°36' E 002°24'5 7.6
2017-Nov-10 22:47N 51°32' E 002°18'3 8.0
2017-Nov-10 22:26N 51°30' E 002°15'4 8.3
2017-Nov-10 21:57N 51°27' E 002°11'4 8.6
2017-Nov-10 21:30N 51°24' E 002°07'4 8.7
2017-Nov-10 21:00N 51°21' E 002°01'4 8.9
2017-Nov-10 20:30N 51°18' E 001°56'5 9.2
2017-Nov-10 20:00N 51°15' E 001°51'5 9.4
2017-Nov-10 19:30N 51°11' E 001°46'5 9.8
2017-Nov-10 19:00N 51°07' E 001°42'510.4
2017-Nov-10 18:31N 51°03' E 001°37'82 9.9
2017-Nov-10 10:14N 50°17' W 000°10'3 9.8
2017-Nov-10 09:56N 50°16' W 000°15'5 9.5
2017-Nov-10 09:22N 50°15' W 000°23'4 9.0
2017-Nov-10 08:53N 50°14' W 000°29'23 7.9
2017-Nov-10 06:00N 50°08' W 001°04'4 7.3
2017-Nov-10 05:30N 50°08' W 001°10'4 7.6
2017-Nov-10 05:00N 50°07' W 001°15'4 8.0
2017-Nov-10 04:31N 50°05' W 001°21'4 8.5
2017-Nov-10 04:00N 50°04' W 001°28'5 9.2
2017-Nov-10 03:30N 50°03' W 001°35'5 9.8
2017-Nov-10 03:00N 50°01' W 001°42'510.7
2017-Nov-10 02:31N 50°00' W 001°50'611.3
2017-Nov-10 02:00N 49°59' W 001°58'4611.6
2017-Nov-09 22:01N 49°51' W 003°09'411.2
2017-Nov-09 21:42N 49°51' W 003°15'211.2
2017-Nov-09 21:30N 49°51' W 003°18'511.1
2017-Nov-09 21:00N 49°51' W 003°27'1110.9
2017-Nov-09 19:58N 49°52' W 003°44'1510.2
2017-Nov-09 18:28N 49°52' W 004°08'12 9.7
2017-Nov-09 17:15N 49°52' W 004°26'12 9.4
2017-Nov-09 15:56N 49°53' W 004°46'53 6.4
2017-Nov-09 07:38N 50°25' W 005°52'3 8.6
2017-Nov-09 07:20N 50°26' W 005°49'3 8.5
2017-Nov-09 07:00N 50°28' W 005°46'4 8.6
2017-Nov-09 06:30N 50°31' W 005°41'4 8.7
2017-Nov-09 06:00N 50°34' W 005°35'4 8.9
2017-Nov-09 05:30N 50°37' W 005°30'4 9.0
2017-Nov-09 05:00N 50°40' W 005°25'5 9.2
2017-Nov-09 04:30N 50°43' W 005°20'5 9.5
2017-Nov-09 04:00N 50°46' W 005°14'5 9.7
2017-Nov-09 03:30N 50°50' W 005°09'510.0
2017-Nov-09 03:00N 50°53' W 005°03'510.2
2017-Nov-09 02:30N 50°56' W 004°57'510.5
2017-Nov-09 02:00N 50°60' W 004°51'510.8
2017-Nov-09 01:30N 51°04' W 004°45'611.2
2017-Nov-09 01:00N 51°08' W 004°38'611.7
2017-Nov-09 00:29N 51°12' W 004°31'19 0.5
2017-Nov-07 09:50N 51°30' W 004°42'3 8.5
2017-Nov-07 09:29N 51°30' W 004°47'4 8.4
2017-Nov-07 09:00N 51°30' W 004°53'4 8.3
2017-Nov-07 08:30N 51°30' W 004°60'4 8.4
2017-Nov-07 08:00N 51°30' W 005°06'4 8.9
2017-Nov-07 07:30N 51°29' W 005°13'6 9.4
2017-Nov-07 06:51N 51°27' W 005°23'4 9.9
2017-Nov-07 06:30N 51°26' W 005°28'54 7.3
2017-Nov-06 23:07N 51°57' W 006°39'1 8.0
2017-Nov-06 22:58N 51°58' W 006°40'4 7.6
2017-Nov-06 22:30N 51°60' W 006°45'4 7.7
2017-Nov-06 22:00N 52°02' W 006°50'4 7.7
2017-Nov-06 21:30N 52°05' W 006°54'4 7.1
2017-Nov-06 21:00N 52°08' W 006°57'3 5.7
2017-Nov-06 20:30N 52°11' W 006°56'6 0.3
2017-Nov-06 02:31N 52°16' W 007°02'0 0.0
2017-Nov-06 02:00N 52°16' W 007°02'  

Dump ship's entire track history